createdAt,value
2024-05-09T00:10:07.148Z,1.50
2024-05-09T00:16:35.419Z,1.20
2024-05-09T00:23:05.481Z,1.30
2024-05-09T00:26:07.377Z,1.02
2024-05-09T00:29:12.416Z,1.30
2024-05-09T00:32:17.130Z,1.40
2024-05-09T00:45:25.988Z,1.30
2024-05-09T00:48:30.752Z,1.20
2024-05-09T00:54:54.854Z,1.73
2024-05-09T01:01:20.922Z,1.17
2024-05-09T01:04:25.939Z,1.42
2024-05-09T01:10:49.117Z,1.10
2024-05-09T01:17:15.545Z,0.70
2024-05-09T01:23:38.226Z,1.48
2024-05-09T01:26:40.386Z,1.20
2024-05-09T01:29:44.236Z,0.98
2024-05-09T01:32:46.200Z,0.82
2024-05-09T01:39:10.906Z,0.75
2024-05-09T01:42:12.759Z,0.90
2024-05-09T01:45:15.045Z,1.00
2024-05-09T01:48:18.469Z,0.47
2024-05-09T01:51:21.565Z,0.88
2024-05-09T01:54:27.376Z,0.57
2024-05-09T02:00:52.105Z,0.70
2024-05-09T02:03:54.061Z,0.60
2024-05-09T02:10:00.309Z,0.68
2024-05-09T02:13:02.154Z,0.70
2024-05-09T02:16:04.527Z,0.60
2024-05-09T02:19:26.458Z,0.75
2024-05-09T02:22:28.316Z,0.73
2024-05-09T02:25:33.603Z,0.60
2024-05-09T02:28:35.519Z,0.70
2024-05-09T02:31:39.598Z,0.65
2024-05-09T02:37:50.200Z,0.68
2024-05-09T02:40:54.792Z,0.55
2024-05-09T02:43:56.728Z,0.65
2024-05-09T02:50:02.395Z,0.85
2024-05-09T02:53:05.365Z,0.50
2024-05-09T02:56:24.845Z,0.70
2024-05-09T02:59:45.960Z,0.68
2024-05-09T03:02:47.986Z,0.70
2024-05-09T03:08:52.477Z,0.70
2024-05-09T03:11:54.524Z,0.60
2024-05-09T03:15:01.023Z,0.65
2024-05-09T03:21:20.370Z,0.77
2024-05-09T03:24:22.372Z,0.93
2024-05-09T03:30:39.904Z,1.00
2024-05-09T03:33:45.032Z,0.85
2024-05-09T03:36:51.651Z,0.90
2024-05-09T03:40:02.907Z,0.90
2024-05-09T03:43:07.195Z,0.80
2024-05-09T03:46:12.585Z,0.90
2024-05-09T03:49:15.027Z,1.23
2024-05-09T03:52:17.789Z,0.68
2024-05-09T03:55:19.988Z,0.80
2024-05-09T03:58:25.790Z,0.80
2024-05-09T04:01:30.474Z,1.00
2024-05-09T04:04:35.212Z,0.70
2024-05-09T04:07:37.979Z,0.93
2024-05-09T04:10:40.982Z,0.90
2024-05-09T04:13:43.095Z,0.88
2024-05-09T04:16:47.650Z,0.90
2024-05-09T04:19:49.542Z,0.98
2024-05-09T04:22:51.535Z,0.90
2024-05-09T04:25:53.628Z,1.17
2024-05-09T04:28:55.582Z,0.85
2024-05-09T04:35:15.548Z,1.00
2024-05-09T04:41:19.980Z,1.02
2024-05-09T04:44:21.894Z,1.23
2024-05-09T04:47:27.011Z,1.20
2024-05-09T04:50:35.652Z,1.45
2024-05-09T04:53:40.404Z,1.50
2024-05-09T04:59:49.452Z,1.20
2024-05-09T05:06:19.367Z,1.55
2024-05-09T05:09:21.332Z,1.20
2024-05-09T05:12:26.972Z,1.70
2024-05-09T05:15:29.298Z,1.70
2024-05-09T05:18:31.562Z,1.77
2024-05-09T05:24:38.523Z,2.10
2024-05-09T05:27:41.113Z,1.83
2024-05-09T05:34:14.874Z,2.20
2024-05-09T05:37:19.442Z,2.65
2024-05-09T05:40:35.778Z,3.22
2024-05-09T05:43:40.434Z,2.55
2024-05-09T05:46:42.242Z,2.53
2024-05-09T05:49:44.241Z,2.55
2024-05-09T05:53:04.875Z,3.30
2024-05-09T05:56:10.172Z,2.58
2024-05-09T05:59:15.325Z,2.67
2024-05-09T06:02:17.756Z,3.15
2024-05-09T06:05:23.425Z,2.75
2024-05-09T06:11:43.791Z,2.05
2024-05-09T06:14:48.339Z,2.28
2024-05-09T06:17:50.386Z,2.65
2024-05-09T06:24:09.491Z,2.03
2024-05-09T06:27:11.367Z,2.25
2024-05-09T06:30:25.774Z,2.15
2024-05-09T06:33:33.201Z,2.08
2024-05-09T06:36:42.124Z,1.60
2024-05-09T06:42:52.571Z,2.50
2024-05-09T06:45:56.995Z,2.15
2024-05-09T06:52:23.594Z,2.10
2024-05-09T06:55:25.454Z,2.95
2024-05-09T07:01:32.164Z,2.28
2024-05-09T07:04:35.342Z,2.40
2024-05-09T07:07:40.266Z,2.72
2024-05-09T07:10:42.989Z,2.25
2024-05-09T07:13:45.108Z,2.10
2024-05-09T07:20:03.091Z,2.25
2024-05-09T07:29:44.519Z,1.83
2024-05-09T07:32:49.420Z,2.05
2024-05-09T07:35:56.522Z,2.30
2024-05-09T07:38:58.400Z,2.20
2024-05-09T07:45:21.247Z,2.10
2024-05-09T07:54:56.830Z,2.00
2024-05-09T07:57:59.997Z,1.77
2024-05-09T08:07:52.087Z,2.08
2024-05-09T08:10:54.157Z,1.77
2024-05-09T08:16:58.573Z,2.00
2024-05-09T08:23:07.279Z,2.20
2024-05-09T08:26:09.141Z,1.70
2024-05-09T08:32:15.798Z,2.05
2024-05-09T08:35:17.626Z,2.00
2024-05-09T08:41:31.280Z,2.78
2024-05-09T08:47:40.602Z,2.40
2024-05-09T08:50:45.401Z,2.80
2024-05-09T08:53:51.842Z,2.90
2024-05-09T08:56:54.046Z,2.60
2024-05-09T09:03:29.456Z,2.67
2024-05-09T09:06:34.996Z,2.50
2024-05-09T09:09:48.591Z,2.70
2024-05-09T09:12:55.342Z,2.97
2024-05-09T09:19:11.273Z,2.90
2024-05-09T09:25:18.820Z,3.47
2024-05-09T09:28:23.252Z,2.78
2024-05-09T09:31:25.751Z,3.50
2024-05-09T09:34:28.073Z,3.50
2024-05-09T09:37:34.376Z,3.80
2024-05-09T09:40:49.119Z,3.65
2024-05-09T09:43:53.604Z,3.70
2024-05-09T09:46:57.011Z,3.35
2024-05-09T09:50:02.327Z,3.85
2024-05-09T09:53:07.138Z,3.95
2024-05-09T09:56:15.862Z,3.95
2024-05-09T09:59:18.147Z,4.10
2024-05-09T10:02:20.490Z,3.65
2024-05-09T10:05:24.496Z,3.55
2024-05-09T10:08:27.257Z,3.65
2024-05-09T10:11:37.028Z,3.85
2024-05-09T10:14:48.023Z,3.85
2024-05-09T10:17:50.944Z,3.10
2024-05-09T10:24:07.241Z,3.72
2024-05-09T10:27:13.074Z,3.58
2024-05-09T10:33:55.906Z,3.33
2024-05-09T10:37:17.192Z,3.22
2024-05-09T10:40:25.880Z,3.17
2024-05-09T10:46:53.835Z,3.22
2024-05-09T10:49:56.397Z,3.75
2024-05-09T10:52:58.381Z,3.38
2024-05-09T10:59:15.258Z,3.35
2024-05-09T11:02:19.875Z,3.10
2024-05-09T11:05:23.362Z,3.25
2024-05-09T11:08:25.970Z,3.63
2024-05-09T11:11:29.081Z,3.38
2024-05-09T11:14:31.050Z,3.42
2024-05-09T11:17:40.259Z,3.00
2024-05-09T11:20:42.348Z,3.42
2024-05-09T11:23:44.569Z,3.15
2024-05-09T11:26:46.577Z,2.78
2024-05-09T11:29:48.383Z,3.28
2024-05-09T11:32:53.189Z,3.35
2024-05-09T11:35:55.286Z,2.97
2024-05-09T11:38:57.340Z,4.03
2024-05-09T11:42:02.339Z,3.65
2024-05-09T11:45:04.858Z,3.50
2024-05-09T11:48:11.553Z,3.40
2024-05-09T11:51:13.466Z,3.17
2024-05-09T11:57:17.977Z,3.33
2024-05-09T12:00:29.154Z,3.20
2024-05-09T12:03:41.223Z,2.92
2024-05-09T12:06:43.559Z,3.20
2024-05-09T12:16:13.266Z,2.88
2024-05-09T12:19:18.028Z,2.47
2024-05-09T12:25:50.643Z,3.00
2024-05-09T12:29:04.763Z,3.00
2024-05-09T12:32:07.846Z,2.53
2024-05-09T12:35:12.474Z,2.90
2024-05-09T12:38:15.599Z,3.00
2024-05-09T12:41:17.653Z,2.85
2024-05-09T12:44:24.754Z,2.80
2024-05-09T12:47:49.982Z,3.00
2024-05-09T12:50:54.565Z,2.90
2024-05-09T12:53:56.488Z,2.85
2024-05-09T12:56:58.333Z,3.70
2024-05-09T13:03:32.468Z,2.80
2024-05-09T13:06:37.815Z,3.13
2024-05-09T13:12:51.666Z,3.28
2024-05-09T13:15:53.700Z,3.08
2024-05-09T13:18:55.865Z,2.70
2024-05-09T13:22:00.529Z,2.75
2024-05-09T13:25:16.875Z,3.00
2024-05-09T13:28:19.170Z,3.40
2024-05-09T13:31:22.337Z,3.10
2024-05-09T13:34:24.226Z,3.10
2024-05-09T13:37:28.903Z,3.05
2024-05-09T13:40:34.570Z,2.60
2024-05-09T13:43:38.166Z,2.22
2024-05-09T13:49:48.605Z,2.38
2024-05-09T13:56:07.922Z,1.98
2024-05-09T13:59:10.072Z,1.85
2024-05-09T14:02:12.122Z,1.60
2024-05-09T14:05:14.361Z,2.55
2024-05-09T14:08:20.564Z,1.20
2024-05-09T14:11:31.982Z,1.10
2024-05-09T14:14:41.819Z,1.27
2024-05-09T14:17:43.785Z,1.25
2024-05-09T14:20:45.637Z,1.33
2024-05-09T14:26:58.877Z,1.30
2024-05-09T14:33:09.526Z,1.25
2024-05-09T14:36:11.925Z,1.00
2024-05-09T14:42:33.449Z,1.25
2024-05-09T14:45:35.553Z,1.42
2024-05-09T14:48:51.884Z,2.30
2024-05-09T14:51:56.542Z,1.13
2024-05-09T14:55:00.637Z,1.58
2024-05-09T14:58:03.310Z,1.30
2024-05-09T15:01:10.995Z,1.13
2024-05-09T15:07:33.012Z,1.02
2024-05-09T15:13:50.090Z,0.90
2024-05-09T15:16:53.503Z,0.98
2024-05-09T15:19:56.061Z,0.90
2024-05-09T15:22:58.408Z,1.00
2024-05-09T15:26:00.346Z,0.82
2024-05-09T15:29:04.876Z,1.42
2024-05-09T15:32:06.970Z,1.00
2024-05-09T15:35:08.828Z,0.90
2024-05-09T15:38:10.844Z,0.85
2024-05-09T15:41:13.229Z,0.88
2024-05-09T15:44:17.744Z,0.88
2024-05-09T15:47:21.011Z,0.80
2024-05-09T15:50:37.019Z,1.25
2024-05-09T15:53:42.241Z,0.80
2024-05-09T15:56:44.047Z,0.63
2024-05-09T16:03:14.216Z,1.00
2024-05-09T16:06:16.937Z,0.77
2024-05-09T16:09:18.935Z,0.70
2024-05-09T16:12:20.764Z,0.60
2024-05-09T16:15:25.298Z,0.50
2024-05-09T16:18:27.292Z,0.70
2024-05-09T16:21:29.177Z,0.40
2024-05-09T16:24:31.253Z,0.60
2024-05-09T16:27:33.171Z,0.50
2024-05-09T16:30:38.039Z,0.52
2024-05-09T16:33:40.249Z,0.40
2024-05-09T16:36:42.323Z,0.50
2024-05-09T16:39:44.223Z,0.30
2024-05-09T16:42:46.198Z,0.40
2024-05-09T16:45:50.930Z,0.50
2024-05-09T16:48:52.982Z,0.30
2024-05-09T16:51:54.948Z,0.30
2024-05-09T16:54:57.075Z,0.38
2024-05-09T16:57:59.394Z,0.32
2024-05-09T17:01:04.252Z,0.40
2024-05-09T17:04:06.387Z,0.40
2024-05-09T17:07:08.507Z,0.20
2024-05-09T17:10:19.100Z,0.40
2024-05-09T17:13:24.730Z,0.10
2024-05-09T17:16:29.639Z,0.13
2024-05-09T17:19:31.578Z,0.25
2024-05-09T17:22:33.571Z,0.15
2024-05-09T17:25:35.444Z,0.15
2024-05-09T17:28:37.500Z,0.30
2024-05-09T17:31:42.092Z,0.10
2024-05-09T17:34:43.976Z,0.13
2024-05-09T17:37:45.849Z,0.30
2024-05-09T17:40:47.911Z,0.20
2024-05-09T17:47:12.396Z,0.22
2024-05-09T17:53:25.064Z,0.13
2024-05-09T18:02:57.511Z,0.20
2024-05-09T18:05:59.611Z,0.20
2024-05-09T18:09:01.455Z,0.28
2024-05-09T18:12:03.734Z,0.05
2024-05-09T18:15:06.356Z,0.00
2024-05-09T18:18:28.427Z,0.10
2024-05-09T18:21:33.122Z,0.10
2024-05-09T18:24:35.111Z,0.10
2024-05-09T18:27:37.213Z,0.15
2024-05-09T18:30:40.579Z,0.00
2024-05-09T18:33:42.767Z,0.10
2024-05-09T18:36:47.542Z,0.10
2024-05-09T18:43:38.424Z,0.10
2024-05-09T18:46:46.545Z,0.10
2024-05-09T18:49:48.516Z,0.00
2024-05-09T18:52:53.033Z,0.10
2024-05-09T18:55:54.899Z,0.08
2024-05-09T18:58:56.667Z,0.10
2024-05-09T19:05:00.654Z,0.20
2024-05-09T19:08:06.151Z,0.20
2024-05-09T19:11:08.137Z,0.17
2024-05-09T19:14:10.365Z,0.00
2024-05-09T19:17:12.215Z,0.10
2024-05-09T19:20:24.829Z,0.00
2024-05-09T19:23:38.046Z,0.10
2024-05-09T19:26:40.424Z,0.20
2024-05-09T19:29:42.267Z,0.10
2024-05-09T19:32:44.217Z,0.10
2024-05-09T19:35:46.130Z,0.05
2024-05-09T19:38:50.675Z,0.20
2024-05-09T19:41:52.542Z,0.15
2024-05-09T19:44:54.357Z,0.30
2024-05-09T19:47:56.734Z,0.05
2024-05-09T19:51:05.131Z,0.15
2024-05-09T19:54:09.584Z,0.15
2024-05-09T19:57:11.462Z,0.10
2024-05-09T20:00:21.472Z,0.10
2024-05-09T20:03:24.348Z,0.10
2024-05-09T20:09:44.136Z,0.10
2024-05-09T20:16:10.257Z,0.00
2024-05-09T20:19:12.516Z,0.13
2024-05-09T20:22:14.948Z,0.10
2024-05-09T20:25:22.880Z,0.03
2024-05-09T20:28:42.828Z,0.20
2024-05-09T20:34:54.439Z,0.10
2024-05-09T20:37:56.279Z,0.17
2024-05-09T20:44:02.472Z,0.10
2024-05-09T20:53:17.568Z,0.10
2024-05-09T20:56:41.633Z,0.05
2024-05-09T21:03:04.378Z,0.10
2024-05-09T21:06:06.360Z,0.20
2024-05-09T21:09:09.285Z,0.90
2024-05-09T21:15:29.121Z,0.10
2024-05-09T21:18:31.502Z,0.20
2024-05-09T21:21:39.190Z,0.03
2024-05-09T21:24:44.316Z,0.03
2024-05-09T21:27:46.764Z,0.10
2024-05-09T21:30:51.359Z,0.20
2024-05-09T21:33:54.111Z,0.40
2024-05-09T21:39:59.176Z,0.00
2024-05-09T21:43:01.585Z,0.00
2024-05-09T21:46:06.752Z,0.00
2024-05-09T21:52:22.185Z,0.05
2024-05-09T21:55:31.984Z,0.00
2024-05-09T21:58:48.455Z,0.10
2024-05-09T22:01:52.949Z,0.00
2024-05-09T22:05:01.296Z,0.00
2024-05-09T22:08:03.484Z,0.10
2024-05-09T22:11:06.391Z,0.10
2024-05-09T22:14:10.072Z,0.05
2024-05-09T22:17:16.154Z,0.10
2024-05-09T22:20:29.344Z,0.10
2024-05-09T22:23:38.638Z,0.10
2024-05-09T22:26:40.735Z,0.00
2024-05-09T22:29:42.637Z,0.00
2024-05-09T22:35:48.949Z,0.10
2024-05-09T22:38:51.702Z,0.00
2024-05-09T22:41:53.529Z,0.00
2024-05-09T22:44:55.371Z,0.10
2024-05-09T22:48:00.222Z,0.00
2024-05-09T22:51:02.772Z,0.00
2024-05-09T22:54:05.069Z,0.17
2024-05-09T22:57:15.272Z,0.00
2024-05-09T23:00:21.676Z,0.10
2024-05-09T23:06:57.191Z,0.00
2024-05-09T23:09:59.092Z,0.10
2024-05-09T23:13:01.062Z,0.10
2024-05-09T23:16:03.451Z,0.00
2024-05-09T23:19:08.421Z,0.10
2024-05-09T23:25:27.732Z,0.10
2024-05-09T23:28:29.756Z,0.00
2024-05-09T23:31:31.808Z,0.10
2024-05-09T23:34:36.857Z,0.00
2024-05-09T23:37:39.168Z,0.00
2024-05-09T23:40:42.337Z,0.00
2024-05-09T23:47:03.069Z,0.00
2024-05-09T23:50:16.244Z,0.00
2024-05-09T23:53:22.209Z,0.15
2024-05-09T23:56:24.297Z,0.10
2024-05-09T23:59:34.831Z,0.28
